sensor_id;sensor_type;location;lat;lon;timestamp;temperature;humidity
40952;DHT22;26682;51.660;19.338;2023-03-13T00:00:55;1.40;1.00
40952;DHT22;26682;51.660;19.338;2023-03-13T00:03:38;1.40;1.00
40952;DHT22;26682;51.660;19.338;2023-03-13T00:06:26;1.30;1.00
40952;DHT22;26682;51.660;19.338;2023-03-13T00:09:11;1.40;1.00
40952;DHT22;26682;51.660;19.338;2023-03-13T00:11:53;1.40;1.00
40952;DHT22;26682;51.660;19.338;2023-03-13T00:14:36;1.30;1.00
40952;DHT22;26682;51.660;19.338;2023-03-13T00:17:18;1.30;1.00
40952;DHT22;26682;51.660;19.338;2023-03-13T00:20:01;1.30;1.00
40952;DHT22;26682;51.660;19.338;2023-03-13T00:22:43;1.30;1.00
40952;DHT22;26682;51.660;19.338;2023-03-13T00:25:26;1.30;1.00
40952;DHT22;26682;51.660;19.338;2023-03-13T00:28:08;1.30;1.00
40952;DHT22;26682;51.660;19.338;2023-03-13T00:30:50;1.30;1.00
40952;DHT22;26682;51.660;19.338;2023-03-13T00:33:38;1.30;1.00
40952;DHT22;26682;51.660;19.338;2023-03-13T00:36:23;1.20;32.00
40952;DHT22;26682;51.660;19.338;2023-03-13T00:39:06;1.20;76.10
40952;DHT22;26682;51.660;19.338;2023-03-13T00:41:49;1.20;99.90
40952;DHT22;26682;51.660;19.338;2023-03-13T00:44:32;1.20;99.90
40952;DHT22;26682;51.660;19.338;2023-03-13T00:47:14;1.20;99.90
40952;DHT22;26682;51.660;19.338;2023-03-13T00:49:57;1.20;99.90
40952;DHT22;26682;51.660;19.338;2023-03-13T00:52:39;1.20;99.90
40952;DHT22;26682;51.660;19.338;2023-03-13T00:55:22;1.20;99.90
40952;DHT22;26682;51.660;19.338;2023-03-13T00:58:04;1.20;99.90
40952;DHT22;26682;51.660;19.338;2023-03-13T01:00:47;1.20;99.90
40952;DHT22;26682;51.660;19.338;2023-03-13T01:03:29;1.10;99.90
40952;DHT22;26682;51.660;19.338;2023-03-13T01:06:14;1.10;99.90
40952;DHT22;26682;51.660;19.338;2023-03-13T01:08:57;1.10;99.90
40952;DHT22;26682;51.660;19.338;2023-03-13T01:11:42;1.20;99.90
40952;DHT22;26682;51.660;19.338;2023-03-13T01:14:27;1.20;99.90
40952;DHT22;26682;51.660;19.338;2023-03-13T01:17:09;1.20;99.90
40952;DHT22;26682;51.660;19.338;2023-03-13T01:19:57;1.20;99.90
40952;DHT22;26682;51.660;19.338;2023-03-13T01:22:39;1.20;99.90
40952;DHT22;26682;51.660;19.338;2023-03-13T01:25:22;1.20;99.90
40952;DHT22;26682;51.660;19.338;2023-03-13T01:28:04;1.20;99.90
40952;DHT22;26682;51.660;19.338;2023-03-13T01:30:47;1.20;99.90
40952;DHT22;26682;51.660;19.338;2023-03-13T01:33:29;1.20;99.90
40952;DHT22;26682;51.660;19.338;2023-03-13T01:36:12;1.20;99.90
40952;DHT22;26682;51.660;19.338;2023-03-13T01:38:56;1.20;99.90
40952;DHT22;26682;51.660;19.338;2023-03-13T01:41:40;1.20;99.90
40952;DHT22;26682;51.660;19.338;2023-03-13T01:44:26;1.20;99.90
40952;DHT22;26682;51.660;19.338;2023-03-13T01:47:10;1.20;99.90
40952;DHT22;26682;51.660;19.338;2023-03-13T01:50:15;1.20;99.90
40952;DHT22;26682;51.660;19.338;2023-03-13T01:53:24;1.30;99.90
40952;DHT22;26682;51.660;19.338;2023-03-13T01:56:10;1.40;99.90
40952;DHT22;26682;51.660;19.338;2023-03-13T01:58:56;1.30;99.90
40952;DHT22;26682;51.660;19.338;2023-03-13T02:01:40;1.40;99.90
40952;DHT22;26682;51.660;19.338;2023-03-13T02:04:25;1.40;99.90
40952;DHT22;26682;51.660;19.338;2023-03-13T02:07:13;1.50;99.90
40952;DHT22;26682;51.660;19.338;2023-03-13T02:09:58;1.50;99.90
40952;DHT22;26682;51.660;19.338;2023-03-13T02:12:41;1.50;99.90
40952;DHT22;26682;51.660;19.338;2023-03-13T02:15:25;1.50;99.90
40952;DHT22;26682;51.660;19.338;2023-03-13T02:18:08;1.60;99.90
40952;DHT22;26682;51.660;19.338;2023-03-13T02:20:54;1.60;99.90
40952;DHT22;26682;51.660;19.338;2023-03-13T02:23:42;1.70;99.90
40952;DHT22;26682;51.660;19.338;2023-03-13T02:26:26;1.70;99.90
40952;DHT22;26682;51.660;19.338;2023-03-13T02:29:10;1.80;99.90
40952;DHT22;26682;51.660;19.338;2023-03-13T02:31:59;1.80;99.90
40952;DHT22;26682;51.660;19.338;2023-03-13T02:34:43;1.90;99.90
40952;DHT22;26682;51.660;19.338;2023-03-13T02:37:29;1.90;99.90
40952;DHT22;26682;51.660;19.338;2023-03-13T02:40:15;1.90;99.90
40952;DHT22;26682;51.660;19.338;2023-03-13T02:43:02;2.00;99.90
40952;DHT22;26682;51.660;19.338;2023-03-13T02:46:08;2.00;99.90
40952;DHT22;26682;51.660;19.338;2023-03-13T02:48:55;2.10;99.90
40952;DHT22;26682;51.660;19.338;2023-03-13T02:51:43;2.10;99.90
40952;DHT22;26682;51.660;19.338;2023-03-13T02:54:33;2.10;99.90
40952;DHT22;26682;51.660;19.338;2023-03-13T02:57:17;2.20;99.90
40952;DHT22;26682;51.660;19.338;2023-03-13T03:00:00;2.20;99.90
40952;DHT22;26682;51.660;19.338;2023-03-13T03:02:44;2.30;99.90
40952;DHT22;26682;51.660;19.338;2023-03-13T03:05:28;2.30;99.90
40952;DHT22;26682;51.660;19.338;2023-03-13T03:08:11;2.30;99.90
40952;DHT22;26682;51.660;19.338;2023-03-13T03:10:54;2.30;99.90
40952;DHT22;26682;51.660;19.338;2023-03-13T03:13:38;2.40;99.90
40952;DHT22;26682;51.660;19.338;2023-03-13T03:16:20;2.40;99.90
40952;DHT22;26682;51.660;19.338;2023-03-13T03:19:03;2.40;99.90
40952;DHT22;26682;51.660;19.338;2023-03-13T03:21:45;2.40;99.90
40952;DHT22;26682;51.660;19.338;2023-03-13T03:24:33;2.50;99.90
40952;DHT22;26682;51.660;19.338;2023-03-13T03:27:18;2.50;99.90
40952;DHT22;26682;51.660;19.338;2023-03-13T03:30:06;2.50;99.90
40952;DHT22;26682;51.660;19.338;2023-03-13T03:32:51;2.60;99.90
40952;DHT22;26682;51.660;19.338;2023-03-13T03:35:35;2.60;99.90
40952;DHT22;26682;51.660;19.338;2023-03-13T03:38:21;2.60;99.90
40952;DHT22;26682;51.660;19.338;2023-03-13T03:41:05;2.70;99.90
40952;DHT22;26682;51.660;19.338;2023-03-13T03:43:48;2.70;99.90
40952;DHT22;26682;51.660;19.338;2023-03-13T03:46:34;2.80;99.90
40952;DHT22;26682;51.660;19.338;2023-03-13T03:49:17;2.80;99.90
40952;DHT22;26682;51.660;19.338;2023-03-13T03:51:59;2.90;99.90
40952;DHT22;26682;51.660;19.338;2023-03-13T03:54:47;2.90;99.90
40952;DHT22;26682;51.660;19.338;2023-03-13T03:57:31;2.90;99.90
40952;DHT22;26682;51.660;19.338;2023-03-13T04:00:14;3.00;99.90
40952;DHT22;26682;51.660;19.338;2023-03-13T04:03:03;3.00;99.90
40952;DHT22;26682;51.660;19.338;2023-03-13T04:05:45;3.10;99.90
40952;DHT22;26682;51.660;19.338;2023-03-13T04:08:28;3.10;99.90
40952;DHT22;26682;51.660;19.338;2023-03-13T04:11:11;3.10;99.90
40952;DHT22;26682;51.660;19.338;2023-03-13T04:13:57;3.20;99.90
40952;DHT22;26682;51.660;19.338;2023-03-13T04:16:40;3.20;99.90
40952;DHT22;26682;51.660;19.338;2023-03-13T04:19:24;3.20;99.90
40952;DHT22;26682;51.660;19.338;2023-03-13T04:22:07;3.20;99.90
40952;DHT22;26682;51.660;19.338;2023-03-13T04:24:52;3.20;99.90
40952;DHT22;26682;51.660;19.338;2023-03-13T04:27:37;3.30;99.90
40952;DHT22;26682;51.660;19.338;2023-03-13T04:30:21;3.30;99.90
40952;DHT22;26682;51.660;19.338;2023-03-13T04:33:39;3.30;99.90
40952;DHT22;26682;51.660;19.338;2023-03-13T04:36:32;3.30;99.90
40952;DHT22;26682;51.660;19.338;2023-03-13T04:39:33;3.30;99.90
40952;DHT22;26682;51.660;19.338;2023-03-13T04:42:42;3.30;99.90
40952;DHT22;26682;51.660;19.338;2023-03-13T04:45:36;3.30;99.90
40952;DHT22;26682;51.660;19.338;2023-03-13T04:48:42;3.30;99.90
40952;DHT22;26682;51.660;19.338;2023-03-13T04:51:51;3.40;99.90
40952;DHT22;26682;51.660;19.338;2023-03-13T04:55:03;3.40;99.90
40952;DHT22;26682;51.660;19.338;2023-03-13T04:58:04;3.40;99.90
40952;DHT22;26682;51.660;19.338;2023-03-13T05:01:00;3.40;99.90
40952;DHT22;26682;51.660;19.338;2023-03-13T05:04:03;3.50;99.90
40952;DHT22;26682;51.660;19.338;2023-03-13T05:07:09;3.50;99.90
40952;DHT22;26682;51.660;19.338;2023-03-13T05:10:07;3.50;99.90
40952;DHT22;26682;51.660;19.338;2023-03-13T05:13:22;3.60;99.90
40952;DHT22;26682;51.660;19.338;2023-03-13T05:16:12;3.60;99.90
40952;DHT22;26682;51.660;19.338;2023-03-13T05:19:12;3.60;99.90
40952;DHT22;26682;51.660;19.338;2023-03-13T05:22:16;3.80;99.90
40952;DHT22;26682;51.660;19.338;2023-03-13T05:25:27;3.70;99.90
40952;DHT22;26682;51.660;19.338;2023-03-13T05:28:31;3.80;99.90
40952;DHT22;26682;51.660;19.338;2023-03-13T05:31:49;3.80;99.90
40952;DHT22;26682;51.660;19.338;2023-03-13T05:34:57;3.80;99.90
40952;DHT22;26682;51.660;19.338;2023-03-13T05:37:58;3.80;99.90
40952;DHT22;26682;51.660;19.338;2023-03-13T05:40:50;3.90;99.90
40952;DHT22;26682;51.660;19.338;2023-03-13T05:44:11;3.90;99.90
40952;DHT22;26682;51.660;19.338;2023-03-13T05:47:12;3.90;99.90
40952;DHT22;26682;51.660;19.338;2023-03-13T05:50:18;3.90;99.90
40952;DHT22;26682;51.660;19.338;2023-03-13T05:53:29;4.00;99.90
40952;DHT22;26682;51.660;19.338;2023-03-13T05:56:31;4.00;99.90
40952;DHT22;26682;51.660;19.338;2023-03-13T05:59:49;4.00;99.90
40952;DHT22;26682;51.660;19.338;2023-03-13T06:02:54;4.10;99.90
40952;DHT22;26682;51.660;19.338;2023-03-13T06:05:44;4.20;99.90
40952;DHT22;26682;51.660;19.338;2023-03-13T06:08:51;4.20;99.90
40952;DHT22;26682;51.660;19.338;2023-03-13T06:11:36;4.30;99.90
40952;DHT22;26682;51.660;19.338;2023-03-13T06:14:20;4.40;99.90
40952;DHT22;26682;51.660;19.338;2023-03-13T06:17:38;4.40;99.90
40952;DHT22;26682;51.660;19.338;2023-03-13T06:20:21;4.50;99.90
40952;DHT22;26682;51.660;19.338;2023-03-13T06:23:04;4.50;99.90
40952;DHT22;26682;51.660;19.338;2023-03-13T06:25:47;4.50;99.90
40952;DHT22;26682;51.660;19.338;2023-03-13T06:28:29;4.60;99.90
40952;DHT22;26682;51.660;19.338;2023-03-13T06:31:12;4.70;99.90
40952;DHT22;26682;51.660;19.338;2023-03-13T06:33:55;4.90;99.90
40952;DHT22;26682;51.660;19.338;2023-03-13T06:36:37;5.00;99.90
40952;DHT22;26682;51.660;19.338;2023-03-13T06:39:20;5.10;99.90
40952;DHT22;26682;51.660;19.338;2023-03-13T06:42:03;5.10;99.90
40952;DHT22;26682;51.660;19.338;2023-03-13T06:44:45;5.20;99.90
40952;DHT22;26682;51.660;19.338;2023-03-13T06:47:30;5.20;99.90
40952;DHT22;26682;51.660;19.338;2023-03-13T06:50:13;5.30;99.90
40952;DHT22;26682;51.660;19.338;2023-03-13T06:52:56;5.30;99.90
40952;DHT22;26682;51.660;19.338;2023-03-13T06:55:42;5.50;99.90
40952;DHT22;26682;51.660;19.338;2023-03-13T06:58:27;5.70;99.90
40952;DHT22;26682;51.660;19.338;2023-03-13T07:01:14;5.80;99.90
40952;DHT22;26682;51.660;19.338;2023-03-13T07:03:57;5.80;99.90
40952;DHT22;26682;51.660;19.338;2023-03-13T07:06:40;5.90;99.90
40952;DHT22;26682;51.660;19.338;2023-03-13T07:09:22;5.90;99.90
40952;DHT22;26682;51.660;19.338;2023-03-13T07:12:05;6.00;99.90
40952;DHT22;26682;51.660;19.338;2023-03-13T07:14:48;6.00;99.90
40952;DHT22;26682;51.660;19.338;2023-03-13T07:17:30;6.00;99.90
40952;DHT22;26682;51.660;19.338;2023-03-13T07:20:13;6.00;99.90
40952;DHT22;26682;51.660;19.338;2023-03-13T07:22:58;6.10;99.90
40952;DHT22;26682;51.660;19.338;2023-03-13T07:25:41;6.10;99.90
40952;DHT22;26682;51.660;19.338;2023-03-13T07:28:24;6.20;99.90
40952;DHT22;26682;51.660;19.338;2023-03-13T07:33:55;6.50;99.90
40952;DHT22;26682;51.660;19.338;2023-03-13T07:36:38;6.60;99.90
40952;DHT22;26682;51.660;19.338;2023-03-13T07:39:22;6.70;99.90
40952;DHT22;26682;51.660;19.338;2023-03-13T07:42:05;6.90;99.90
40952;DHT22;26682;51.660;19.338;2023-03-13T07:44:48;7.00;99.90
40952;DHT22;26682;51.660;19.338;2023-03-13T07:47:33;7.00;99.90
40952;DHT22;26682;51.660;19.338;2023-03-13T07:50:16;7.10;99.90
40952;DHT22;26682;51.660;19.338;2023-03-13T07:52:58;7.20;99.90
40952;DHT22;26682;51.660;19.338;2023-03-13T07:55:41;7.20;99.90
40952;DHT22;26682;51.660;19.338;2023-03-13T07:58:27;7.40;99.90
40952;DHT22;26682;51.660;19.338;2023-03-13T08:01:24;7.40;99.90
40952;DHT22;26682;51.660;19.338;2023-03-13T08:04:12;7.60;99.90
40952;DHT22;26682;51.660;19.338;2023-03-13T08:06:55;7.70;99.90
40952;DHT22;26682;51.660;19.338;2023-03-13T08:09:38;7.70;99.90
40952;DHT22;26682;51.660;19.338;2023-03-13T08:12:20;7.90;99.90
40952;DHT22;26682;51.660;19.338;2023-03-13T08:15:02;8.00;99.90
40952;DHT22;26682;51.660;19.338;2023-03-13T08:17:45;8.10;91.60
40952;DHT22;26682;51.660;19.338;2023-03-13T08:20:27;8.30;83.50
40952;DHT22;26682;51.660;19.338;2023-03-13T08:23:10;8.40;42.10
40952;DHT22;26682;51.660;19.338;2023-03-13T08:25:52;8.60;63.20
40952;DHT22;26682;51.660;19.338;2023-03-13T08:28:36;8.80;9.90
40952;DHT22;26682;51.660;19.338;2023-03-13T08:31:23;8.90;1.00
40952;DHT22;26682;51.660;19.338;2023-03-13T08:34:06;9.00;1.00
40952;DHT22;26682;51.660;19.338;2023-03-13T08:36:48;8.90;1.00
40952;DHT22;26682;51.660;19.338;2023-03-13T08:39:31;9.00;61.10
40952;DHT22;26682;51.660;19.338;2023-03-13T08:42:13;9.00;1.00
40952;DHT22;26682;51.660;19.338;2023-03-13T08:44:56;9.10;1.00
40952;DHT22;26682;51.660;19.338;2023-03-13T08:47:38;9.20;1.00
40952;DHT22;26682;51.660;19.338;2023-03-13T08:50:21;9.40;1.00
40952;DHT22;26682;51.660;19.338;2023-03-13T08:53:03;9.50;99.90
40952;DHT22;26682;51.660;19.338;2023-03-13T08:55:52;9.60;99.90
40952;DHT22;26682;51.660;19.338;2023-03-13T08:58:34;9.60;99.90
40952;DHT22;26682;51.660;19.338;2023-03-13T09:01:17;9.70;99.90
40952;DHT22;26682;51.660;19.338;2023-03-13T09:04:00;9.80;99.90
40952;DHT22;26682;51.660;19.338;2023-03-13T09:06:45;9.80;99.90
40952;DHT22;26682;51.660;19.338;2023-03-13T09:09:28;9.90;99.90
40952;DHT22;26682;51.660;19.338;2023-03-13T09:12:10;9.90;99.90
40952;DHT22;26682;51.660;19.338;2023-03-13T09:15:10;10.00;99.90
40952;DHT22;26682;51.660;19.338;2023-03-13T09:17:53;10.10;97.70
40952;DHT22;26682;51.660;19.338;2023-03-13T09:20:36;10.00;81.50
40952;DHT22;26682;51.660;19.338;2023-03-13T09:23:20;10.00;35.80
40952;DHT22;26682;51.660;19.338;2023-03-13T09:26:03;10.10;14.10
40952;DHT22;26682;51.660;19.338;2023-03-13T09:28:46;10.20;36.30
40952;DHT22;26682;51.660;19.338;2023-03-13T09:31:30;10.30;43.80
40952;DHT22;26682;51.660;19.338;2023-03-13T09:34:13;10.40;1.00
40952;DHT22;26682;51.660;19.338;2023-03-13T09:36:56;10.50;1.00
40952;DHT22;26682;51.660;19.338;2023-03-13T09:39:38;10.70;1.00
40952;DHT22;26682;51.660;19.338;2023-03-13T09:42:27;10.70;1.00
40952;DHT22;26682;51.660;19.338;2023-03-13T09:46:01;10.70;1.00
40952;DHT22;26682;51.660;19.338;2023-03-13T09:48:40;10.80;1.00
40952;DHT22;26682;51.660;19.338;2023-03-13T09:51:31;10.70;99.90
40952;DHT22;26682;51.660;19.338;2023-03-13T09:54:31;10.60;99.90
40952;DHT22;26682;51.660;19.338;2023-03-13T09:57:41;10.80;99.90
40952;DHT22;26682;51.660;19.338;2023-03-13T10:00:30;10.90;99.90
40952;DHT22;26682;51.660;19.338;2023-03-13T10:06:21;11.10;99.90
40952;DHT22;26682;51.660;19.338;2023-03-13T10:09:17;11.10;99.90
40952;DHT22;26682;51.660;19.338;2023-03-13T10:12:23;11.00;99.90
40952;DHT22;26682;51.660;19.338;2023-03-13T10:18:22;11.00;99.90
40952;DHT22;26682;51.660;19.338;2023-03-13T10:21:24;11.00;99.90
40952;DHT22;26682;51.660;19.338;2023-03-13T10:24:41;11.20;99.90
40952;DHT22;26682;51.660;19.338;2023-03-13T10:27:24;11.30;99.90
40952;DHT22;26682;51.660;19.338;2023-03-13T10:30:21;11.30;99.90
40952;DHT22;26682;51.660;19.338;2023-03-13T10:36:14;11.40;99.90
40952;DHT22;26682;51.660;19.338;2023-03-13T10:38:57;11.40;99.90
40952;DHT22;26682;51.660;19.338;2023-03-13T10:41:39;11.40;99.90
40952;DHT22;26682;51.660;19.338;2023-03-13T10:44:31;11.40;99.90
40952;DHT22;26682;51.660;19.338;2023-03-13T10:47:14;11.50;96.10
40952;DHT22;26682;51.660;19.338;2023-03-13T10:49:57;11.60;79.00
40952;DHT22;26682;51.660;19.338;2023-03-13T10:52:45;11.70;70.60
40952;DHT22;26682;51.660;19.338;2023-03-13T10:55:30;11.70;17.70
40952;DHT22;26682;51.660;19.338;2023-03-13T10:58:42;11.70;8.90
40952;DHT22;26682;51.660;19.338;2023-03-13T11:01:29;11.70;5.40
40952;DHT22;26682;51.660;19.338;2023-03-13T11:04:33;11.70;1.00
40952;DHT22;26682;51.660;19.338;2023-03-13T11:07:21;11.80;1.00
40952;DHT22;26682;51.660;19.338;2023-03-13T11:10:26;11.70;21.70
40952;DHT22;26682;51.660;19.338;2023-03-13T11:13:27;11.60;20.30
40952;DHT22;26682;51.660;19.338;2023-03-13T11:16:23;11.50;44.30
40952;DHT22;26682;51.660;19.338;2023-03-13T11:25:34;11.50;17.20
40952;DHT22;26682;51.660;19.338;2023-03-13T11:31:50;11.40;26.20
40952;DHT22;26682;51.660;19.338;2023-03-13T11:34:42;11.30;45.80
40952;DHT22;26682;51.660;19.338;2023-03-13T11:37:32;11.30;75.30
40952;DHT22;26682;51.660;19.338;2023-03-13T11:40:43;11.10;99.90
40952;DHT22;26682;51.660;19.338;2023-03-13T11:46:53;11.00;99.90
40952;DHT22;26682;51.660;19.338;2023-03-13T12:01:59;10.70;99.90
40952;DHT22;26682;51.660;19.338;2023-03-13T12:05:09;10.70;99.90
40952;DHT22;26682;51.660;19.338;2023-03-13T12:08:04;10.80;99.90
40952;DHT22;26682;51.660;19.338;2023-03-13T12:14:10;10.70;1.00
40952;DHT22;26682;51.660;19.338;2023-03-13T12:17:01;10.80;39.80
40952;DHT22;26682;51.660;19.338;2023-03-13T12:19:53;10.60;93.10
40952;DHT22;26682;51.660;19.338;2023-03-13T12:22:44;10.50;99.90
40952;DHT22;26682;51.660;19.338;2023-03-13T12:25:46;10.30;99.90
40952;DHT22;26682;51.660;19.338;2023-03-13T12:35:14;10.10;99.90
40952;DHT22;26682;51.660;19.338;2023-03-13T12:44:23;9.90;99.90
40952;DHT22;26682;51.660;19.338;2023-03-13T12:47:15;9.90;99.90
40952;DHT22;26682;51.660;19.338;2023-03-13T12:50:29;9.90;99.90
40952;DHT22;26682;51.660;19.338;2023-03-13T12:53:39;9.90;99.90
40952;DHT22;26682;51.660;19.338;2023-03-13T12:56:58;9.80;99.90
40952;DHT22;26682;51.660;19.338;2023-03-13T12:59:52;9.80;99.90
40952;DHT22;26682;51.660;19.338;2023-03-13T13:02:36;9.80;99.90
40952;DHT22;26682;51.660;19.338;2023-03-13T13:05:20;9.80;99.90
40952;DHT22;26682;51.660;19.338;2023-03-13T13:08:20;9.80;99.90
40952;DHT22;26682;51.660;19.338;2023-03-13T13:17:19;9.80;99.90
40952;DHT22;26682;51.660;19.338;2023-03-13T13:20:35;9.90;99.90
40952;DHT22;26682;51.660;19.338;2023-03-13T13:23:36;9.90;99.90
40952;DHT22;26682;51.660;19.338;2023-03-13T13:31:56;9.90;99.90
40952;DHT22;26682;51.660;19.338;2023-03-13T13:35:01;9.90;99.90
40952;DHT22;26682;51.660;19.338;2023-03-13T13:37:48;9.90;99.90
40952;DHT22;26682;51.660;19.338;2023-03-13T13:40:31;9.90;99.90
40952;DHT22;26682;51.660;19.338;2023-03-13T13:43:21;9.90;99.90
40952;DHT22;26682;51.660;19.338;2023-03-13T13:57:31;10.00;1.00
40952;DHT22;26682;51.660;19.338;2023-03-13T14:00:20;10.00;1.00
40952;DHT22;26682;51.660;19.338;2023-03-13T14:03:19;10.10;1.00
40952;DHT22;26682;51.660;19.338;2023-03-13T14:06:15;10.10;1.00
40952;DHT22;26682;51.660;19.338;2023-03-13T14:12:34;10.10;1.00
40952;DHT22;26682;51.660;19.338;2023-03-13T14:15:22;10.10;1.00
40952;DHT22;26682;51.660;19.338;2023-03-13T14:20:56;10.20;1.00
40952;DHT22;26682;51.660;19.338;2023-03-13T14:23:44;10.10;1.00
40952;DHT22;26682;51.660;19.338;2023-03-13T14:26:28;10.20;1.00
40952;DHT22;26682;51.660;19.338;2023-03-13T14:29:18;10.10;1.00
40952;DHT22;26682;51.660;19.338;2023-03-13T14:32:06;10.10;1.00
40952;DHT22;26682;51.660;19.338;2023-03-13T14:34:49;10.10;1.00
40952;DHT22;26682;51.660;19.338;2023-03-13T14:37:51;10.10;1.00
40952;DHT22;26682;51.660;19.338;2023-03-13T14:40:37;10.10;1.00
40952;DHT22;26682;51.660;19.338;2023-03-13T14:43:32;10.10;1.00
40952;DHT22;26682;51.660;19.338;2023-03-13T14:46:29;10.10;1.00
40952;DHT22;26682;51.660;19.338;2023-03-13T14:49:25;10.10;1.00
40952;DHT22;26682;51.660;19.338;2023-03-13T14:52:32;10.10;1.00
40952;DHT22;26682;51.660;19.338;2023-03-13T15:01:34;10.10;1.00
40952;DHT22;26682;51.660;19.338;2023-03-13T15:04:15;10.10;1.00
40952;DHT22;26682;51.660;19.338;2023-03-13T15:07:02;10.10;1.00
40952;DHT22;26682;51.660;19.338;2023-03-13T15:09:46;10.20;1.00
40952;DHT22;26682;51.660;19.338;2023-03-13T15:12:29;10.20;1.00
40952;DHT22;26682;51.660;19.338;2023-03-13T15:15:13;10.30;1.00
40952;DHT22;26682;51.660;19.338;2023-03-13T15:17:55;10.30;1.00
40952;DHT22;26682;51.660;19.338;2023-03-13T15:20:38;10.30;1.00
40952;DHT22;26682;51.660;19.338;2023-03-13T15:23:21;10.30;1.00
40952;DHT22;26682;51.660;19.338;2023-03-13T15:26:04;10.30;1.00
40952;DHT22;26682;51.660;19.338;2023-03-13T15:28:47;10.30;1.00
40952;DHT22;26682;51.660;19.338;2023-03-13T15:31:29;10.30;1.00
40952;DHT22;26682;51.660;19.338;2023-03-13T15:34:13;10.20;1.00
40952;DHT22;26682;51.660;19.338;2023-03-13T15:36:56;10.10;1.00
40952;DHT22;26682;51.660;19.338;2023-03-13T15:39:39;10.10;1.00
40952;DHT22;26682;51.660;19.338;2023-03-13T15:42:22;10.00;1.00
40952;DHT22;26682;51.660;19.338;2023-03-13T15:45:06;9.90;1.20
40952;DHT22;26682;51.660;19.338;2023-03-13T15:47:48;9.90;72.00
40952;DHT22;26682;51.660;19.338;2023-03-13T15:50:34;9.90;93.40
40952;DHT22;26682;51.660;19.338;2023-03-13T15:53:19;9.80;99.30
40952;DHT22;26682;51.660;19.338;2023-03-13T15:56:15;9.80;96.10
40952;DHT22;26682;51.660;19.338;2023-03-13T15:58:58;9.80;61.50
40952;DHT22;26682;51.660;19.338;2023-03-13T16:01:41;9.80;7.30
40952;DHT22;26682;51.660;19.338;2023-03-13T16:04:27;9.90;1.00
40952;DHT22;26682;51.660;19.338;2023-03-13T16:07:11;9.90;1.00
40952;DHT22;26682;51.660;19.338;2023-03-13T16:09:54;9.90;1.00
40952;DHT22;26682;51.660;19.338;2023-03-13T16:12:37;10.00;1.00
40952;DHT22;26682;51.660;19.338;2023-03-13T16:15:20;10.00;1.00
40952;DHT22;26682;51.660;19.338;2023-03-13T16:18:04;10.00;1.00
40952;DHT22;26682;51.660;19.338;2023-03-13T16:20:48;10.10;1.00
40952;DHT22;26682;51.660;19.338;2023-03-13T16:23:31;10.10;1.00
40952;DHT22;26682;51.660;19.338;2023-03-13T16:26:16;10.10;99.90
40952;DHT22;26682;51.660;19.338;2023-03-13T16:28:59;10.10;99.90
40952;DHT22;26682;51.660;19.338;2023-03-13T16:31:42;10.10;99.90
40952;DHT22;26682;51.660;19.338;2023-03-13T16:34:24;10.10;99.90
40952;DHT22;26682;51.660;19.338;2023-03-13T16:37:12;10.20;99.90
40952;DHT22;26682;51.660;19.338;2023-03-13T16:39:55;10.20;99.90
40952;DHT22;26682;51.660;19.338;2023-03-13T16:42:37;10.20;99.90
40952;DHT22;26682;51.660;19.338;2023-03-13T16:45:20;10.20;99.90
40952;DHT22;26682;51.660;19.338;2023-03-13T16:48:03;10.20;99.90
40952;DHT22;26682;51.660;19.338;2023-03-13T16:50:45;10.20;99.90
40952;DHT22;26682;51.660;19.338;2023-03-13T16:53:28;10.20;99.90
40952;DHT22;26682;51.660;19.338;2023-03-13T16:59:18;10.20;99.90
40952;DHT22;26682;51.660;19.338;2023-03-13T17:02:00;10.10;99.90
40952;DHT22;26682;51.660;19.338;2023-03-13T17:04:44;10.10;99.90
40952;DHT22;26682;51.660;19.338;2023-03-13T17:07:27;10.20;99.90
40952;DHT22;26682;51.660;19.338;2023-03-13T17:10:31;10.10;99.90
40952;DHT22;26682;51.660;19.338;2023-03-13T17:13:13;10.10;99.90
40952;DHT22;26682;51.660;19.338;2023-03-13T17:15:56;10.10;99.90
40952;DHT22;26682;51.660;19.338;2023-03-13T17:18:39;10.10;99.90
40952;DHT22;26682;51.660;19.338;2023-03-13T17:21:24;10.10;99.90
40952;DHT22;26682;51.660;19.338;2023-03-13T17:24:07;10.00;99.90
40952;DHT22;26682;51.660;19.338;2023-03-13T17:26:50;10.00;99.90
40952;DHT22;26682;51.660;19.338;2023-03-13T17:29:32;9.90;96.40
40952;DHT22;26682;51.660;19.338;2023-03-13T17:32:15;10.00;90.30
40952;DHT22;26682;51.660;19.338;2023-03-13T17:34:57;10.00;71.60
40952;DHT22;26682;51.660;19.338;2023-03-13T17:37:42;10.10;60.90
40952;DHT22;26682;51.660;19.338;2023-03-13T17:40:27;10.10;35.00
40952;DHT22;26682;51.660;19.338;2023-03-13T17:43:10;10.10;28.20
40952;DHT22;26682;51.660;19.338;2023-03-13T17:45:53;10.10;20.20
40952;DHT22;26682;51.660;19.338;2023-03-13T17:48:38;10.10;9.00
40952;DHT22;26682;51.660;19.338;2023-03-13T17:51:25;10.10;4.20
40952;DHT22;26682;51.660;19.338;2023-03-13T17:54:08;10.10;1.00
40952;DHT22;26682;51.660;19.338;2023-03-13T17:56:50;10.10;1.00
40952;DHT22;26682;51.660;19.338;2023-03-13T17:59:33;10.10;1.00
40952;DHT22;26682;51.660;19.338;2023-03-13T18:02:16;10.10;1.00
40952;DHT22;26682;51.660;19.338;2023-03-13T18:05:00;10.10;1.00
40952;DHT22;26682;51.660;19.338;2023-03-13T18:07:43;10.10;1.00
40952;DHT22;26682;51.660;19.338;2023-03-13T18:10:27;10.10;1.00
40952;DHT22;26682;51.660;19.338;2023-03-13T18:13:10;10.10;1.00
40952;DHT22;26682;51.660;19.338;2023-03-13T18:15:53;10.10;1.00
40952;DHT22;26682;51.660;19.338;2023-03-13T18:18:35;10.10;1.00
40952;DHT22;26682;51.660;19.338;2023-03-13T18:21:19;10.00;1.00
40952;DHT22;26682;51.660;19.338;2023-03-13T18:24:02;10.00;1.00
40952;DHT22;26682;51.660;19.338;2023-03-13T18:26:46;10.00;1.00
40952;DHT22;26682;51.660;19.338;2023-03-13T18:29:29;10.00;1.00
40952;DHT22;26682;51.660;19.338;2023-03-13T18:32:12;10.00;1.00
40952;DHT22;26682;51.660;19.338;2023-03-13T18:34:55;10.00;1.00
40952;DHT22;26682;51.660;19.338;2023-03-13T18:37:39;10.00;1.00
40952;DHT22;26682;51.660;19.338;2023-03-13T18:40:25;9.90;1.00
40952;DHT22;26682;51.660;19.338;2023-03-13T18:43:08;9.80;1.00
40952;DHT22;26682;51.660;19.338;2023-03-13T18:45:50;9.80;1.00
40952;DHT22;26682;51.660;19.338;2023-03-13T18:48:34;9.80;1.00
40952;DHT22;26682;51.660;19.338;2023-03-13T18:51:18;9.80;1.00
40952;DHT22;26682;51.660;19.338;2023-03-13T18:54:01;9.80;1.00
40952;DHT22;26682;51.660;19.338;2023-03-13T18:56:44;9.80;1.00
40952;DHT22;26682;51.660;19.338;2023-03-13T18:59:27;9.80;1.00
40952;DHT22;26682;51.660;19.338;2023-03-13T19:02:15;9.70;1.00
40952;DHT22;26682;51.660;19.338;2023-03-13T19:04:59;9.70;1.00
40952;DHT22;26682;51.660;19.338;2023-03-13T19:07:41;9.70;1.00
40952;DHT22;26682;51.660;19.338;2023-03-13T19:10:27;9.70;1.00
40952;DHT22;26682;51.660;19.338;2023-03-13T19:13:10;9.70;1.00